Parker, ID (83438)

5:05 AM MST on December 22, 2014 (GMT -0700)
Fremont County Courthouse | Change Station
CLOSE
Current Station
Personal Weather Station
Location: St Anthony, ID
Elevation: 4972 ft
Nearby Weather Stations

Elev 4972 ft 43.97 °N, 111.68 °W | Updated 31 seconds ago

Overcast
Overcast
30.9 °F
Feels Like 24 °F
N
7.0
Wind Variable Wind from SSW
Gusts 11.0 mph

Today
High -- | Low -- °F
--% Chance of Precip.
Yesterday
High -- | Low -- °F
Precip. -- in
7:58 AM 4:52 PM
New Moon, 0% visible
Pressure 29.94 in
Visibility 10.0 miles
Clouds Overcast 900 ft
Windchill 24 °F
Dew Point 29 °F
Humidity 94%
Rainfall 0.00 in
Snow Depth Not available.
UV 0 out of 12
Pollen .10 out of 12
Air Quality Not available.
Flu Activity Not available.
METAR KRXE 221153Z AUTO 21010KT 10SM OVC009 00/M01 A2990 RMK AO2 SLP139 T00001011 10000 21006 51001

More Conditions Fewer Conditions

Pressure 29.94 in
Visibility 10.0 miles
Clouds Overcast 900 ft
Windchill 24 °F
Dew Point 29 °F
Humidity 94%
Rainfall 0.00 in
Snow Depth Not available.
UV 0 out of 12
Pollen .10 out of 12
Air Quality Not available.
Flu Activity Not available.
METAR KRXE 221153Z AUTO 21010KT 10SM OVC009 00/M01 A2990 RMK AO2 SLP139 T00001011 10000 21006 51001

More Conditions Fewer Conditions

10-Day Weather Forecast

Almanac

Astronomy

Dec. 22, 2014 Rise Set
Actual Time
Civil Twilight
Nautical Twilight
Astronomical Twilight
Moon
Length of Visible Light
Length of Day
Tomorrow will be .
, % of the Moon is Illuminated

Today's Extremes

State Highs State Lows

Community

WunderPhotos

Upload Photos

1,779,592 photos uploaded!

WunderBlogs® & News

Nearby

Air Quality

  Air Quality AQ Index Pollutant
Not available.

Snow Depth

Station Depth Elevation

Earthquake Activity

City Distance Mag. Time & Date
Minimum magnitude displayed is 2.5.

Coastal Water Temperatures

Place Temperature

Nearby Weather Stations